Time;durP1;ratioP1;P1;durP2;ratioP2;P2;SDS_P1;SDS_P2;PMS_P1;PMS_P2;Temp;Humidity;BMP_temperature;BMP_pressure;BME280_temperature;BME280_humidity;BME280_pressure;Samples;Min_cycle;Max_cycle;Signal;HPM_P1;HPM_P2
2024/01/11 00:01:55;;;;;;;35.37;20.50;;;-4.10;73.40;;;-1.89;51.92;98525.44;5071747;28;20056;-51
2024/01/11 00:04:23;;;;;;;37.90;19.93;;;-4.20;73.60;;;-1.91;51.66;98517.66;5070550;28;20440;-52
2024/01/11 00:06:51;;;;;;;46.10;22.97;;;-4.20;73.50;;;-1.90;51.87;98529.81;5071878;28;20087;-50
2024/01/11 00:09:19;;;;;;;37.37;20.10;;;-4.10;73.30;;;-1.90;51.66;98528.94;5071936;28;20051;-52
2024/01/11 00:11:47;;;;;;;42.57;22.00;;;-4.10;72.90;;;-1.93;52.06;98529.09;5071382;28;20048;-51
2024/01/11 00:14:15;;;;;;;35.87;19.20;;;-4.10;72.90;;;-1.91;51.99;98530.72;5070693;28;20080;-51
2024/01/11 00:16:42;;;;;;;37.47;17.70;;;-4.10;72.60;;;-1.94;52.06;98520.38;5071649;28;20049;-50
2024/01/11 00:19:10;;;;;;;40.83;19.97;;;-4.10;72.80;;;-1.96;51.99;98532.66;5070329;28;20507;-53
2024/01/11 00:21:38;;;;;;;34.10;18.13;;;-4.20;73.00;;;-1.96;51.58;98527.44;5069934;28;20044;-54
2024/01/11 00:24:08;;;;;;;40.80;20.70;;;-4.10;72.70;;;-1.95;51.85;98538.75;5070067;28;20036;-53
2024/01/11 00:26:36;;;;;;;37.20;19.33;;;-4.10;72.30;;;-1.95;52.04;98529.16;5071619;28;20045;-53
2024/01/11 00:29:04;;;;;;;38.90;19.40;;;-4.10;72.20;;;-1.98;51.64;98532.75;5071425;28;20055;-52
2024/01/11 00:31:33;;;;;;;35.93;18.40;;;-4.20;72.50;;;-2.00;51.69;98528.47;5071116;28;20045;-52
2024/01/11 00:34:01;;;;;;;34.20;18.63;;;-4.20;72.20;;;-1.99;52.20;98538.84;5070492;28;20044;-53
2024/01/11 00:36:29;;;;;;;38.03;18.47;;;-4.20;72.00;;;-2.01;51.66;98535.47;5071501;28;20223;-51
2024/01/11 00:38:57;;;;;;;35.87;19.00;;;-4.20;71.70;;;-2.04;51.80;98530.34;5071435;28;20109;-52
2024/01/11 00:41:25;;;;;;;32.57;17.37;;;-4.30;72.30;;;-2.08;51.97;98527.94;5071080;28;20052;-53
2024/01/11 00:43:53;;;;;;;34.13;17.90;;;-4.30;72.70;;;-2.10;52.05;98533.22;5070843;28;20055;-49
2024/01/11 00:46:21;;;;;;;39.53;18.63;;;-4.40;73.40;;;-2.13;51.77;98532.47;5071523;28;20170;-50
2024/01/11 00:48:48;;;;;;;35.53;17.97;;;-4.40;73.90;;;-2.13;52.07;98543.78;5071274;28;20504;-54
2024/01/11 00:51:22;;;;;;;35.38;18.02;;;-4.30;73.60;;;-2.12;51.99;98540.25;5071099;28;20036;-52
2024/01/11 00:53:50;;;;;;;36.97;20.13;;;-4.30;73.20;;;-2.11;52.23;98544.56;5069366;28;20393;-49
2024/01/11 00:56:19;;;;;;;35.07;16.23;;;-4.30;73.20;;;-2.12;52.10;98542.84;5071144;28;20047;-56
2024/01/11 00:58:47;;;;;;;31.57;17.67;;;-4.40;73.30;;;-2.15;52.31;98539.50;5071165;28;20059;-50
2024/01/11 01:01:15;;;;;;;38.67;18.77;;;-4.40;73.80;;;-2.19;52.34;98537.03;5070620;28;20037;-51
2024/01/11 01:03:43;;;;;;;39.17;18.43;;;-4.40;73.80;;;-2.20;52.31;98550.16;5070666;28;20044;-50
2024/01/11 01:06:10;;;;;;;33.80;17.53;;;-4.50;74.00;;;-2.25;52.44;98550.34;5068556;28;20048;-52
2024/01/11 01:08:38;;;;;;;36.23;18.07;;;-4.60;74.00;;;-2.27;52.59;98548.66;5069908;28;20040;-51
2024/01/11 01:11:06;;;;;;;33.40;16.80;;;-4.60;74.80;;;-2.27;52.41;98551.28;5069529;28;20047;-54
2024/01/11 01:13:34;;;;;;;35.60;18.37;;;-4.60;74.70;;;-2.29;52.16;98540.91;5070777;28;20045;-52
2024/01/11 01:16:01;;;;;;;34.57;17.23;;;-4.50;74.50;;;-2.30;52.46;98543.59;5070982;28;20500;-54
2024/01/11 01:18:29;;;;;;;34.73;16.73;;;-4.60;75.00;;;-2.30;52.72;98535.75;5070940;28;20401;-52
2024/01/11 01:20:57;;;;;;;37.77;19.40;;;-4.50;75.20;;;-2.31;52.35;98540.09;5085829;28;20060;-53
2024/01/11 01:23:24;;;;;;;33.03;16.33;;;-4.60;75.30;;;-2.31;52.38;98541.88;5070612;28;20075;-50
2024/01/11 01:25:52;;;;;;;38.70;17.87;;;-4.60;74.80;;;-2.27;52.55;98540.84;5070873;28;20049;-50
2024/01/11 01:28:20;;;;;;;32.60;16.23;;;-4.50;74.20;;;-2.29;52.27;98548.72;5071073;28;20045;-51
2024/01/11 01:30:47;;;;;;;36.00;19.37;;;-4.50;74.30;;;-2.31;52.27;98541.88;5070733;28;20587;-53
2024/01/11 01:33:15;;;;;;;37.43;19.63;;;-4.60;73.70;;;-2.33;52.27;98544.53;5068539;28;20500;-50
2024/01/11 01:35:43;;;;;;;32.30;18.23;;;-4.60;74.20;;;-2.33;52.58;98556.75;5074979;28;20049;-51
2024/01/11 01:38:11;;;;;;;36.97;17.63;;;-4.60;74.30;;;-2.32;52.38;98548.03;5075019;28;20522;-50
2024/01/11 01:40:38;;;;;;;33.97;16.57;;;-4.60;74.00;;;-2.34;52.38;98558.50;5074455;28;20077;-50
2024/01/11 01:43:10;;;;;;;35.70;18.67;;;-4.50;74.50;;;-2.33;52.47;98561.94;5074478;28;20044;-50
2024/01/11 01:45:37;;;;;;;37.33;19.27;;;-4.50;73.90;;;-2.31;52.42;98567.97;5074708;28;20388;-50
2024/01/11 01:48:07;;;;;;;31.57;17.20;;;-4.50;73.60;;;-2.30;52.66;98567.06;5074646;28;20048;-51
2024/01/11 01:50:35;;;;;;;37.10;17.90;;;-4.40;73.20;;;-2.27;52.17;98580.84;5073239;28;20063;-49
2024/01/11 01:53:03;;;;;;;35.17;17.00;;;-4.40;72.50;;;-2.27;52.42;98578.25;5074490;28;20044;-50
2024/01/11 01:55:31;;;;;;;29.90;17.20;;;-4.40;72.30;;;-2.30;52.43;98575.72;5081810;28;20051;-53
2024/01/11 01:58:00;;;;;;;37.40;18.63;;;-4.50;73.00;;;-2.29;51.92;98571.34;5073120;28;20052;-49
2024/01/11 02:00:27;;;;;;;40.03;19.70;;;-4.50;72.80;;;-2.28;52.33;98573.06;5072952;28;20515;-50
2024/01/11 02:02:56;;;;;;;34.20;17.70;;;-4.50;73.00;;;-2.31;51.98;98574.03;5074514;28;20511;-52
2024/01/11 02:05:24;;;;;;;36.53;17.13;;;-4.50;72.80;;;-2.31;52.10;98571.41;5065058;28;20088;-51
2024/01/11 02:07:52;;;;;;;38.43;19.50;;;-4.50;72.60;;;-2.31;52.28;98565.34;5074378;28;20044;-53
2024/01/11 02:10:21;;;;;;;35.80;18.20;;;-4.40;72.10;;;-2.30;51.94;98565.31;5073986;28;20036;-51
2024/01/11 02:12:49;;;;;;;31.30;17.30;;;-4.40;71.80;;;-2.30;52.06;98569.69;5073239;28;20041;-52
2024/01/11 02:15:17;;;;;;;36.07;17.03;;;-4.40;71.90;;;-2.31;52.17;98570.56;5073560;28;20048;-54
2024/01/11 02:17:45;;;;;;;33.63;17.17;;;-4.40;72.40;;;-2.30;52.28;98577.50;5072559;28;20045;-53
2024/01/11 02:20:13;;;;;;;39.20;17.67;;;-4.40;72.90;;;-2.28;52.19;98575.69;5073734;28;20045;-55
2024/01/11 02:22:47;;;;;;;34.03;18.37;;;-4.40;72.70;;;-2.28;52.21;98580.91;5074072;28;20055;-51
2024/01/11 02:25:14;;;;;;;29.45;16.40;;;-4.40;73.10;;;-2.29;52.40;98580.03;5073646;28;20051;-52
2024/01/11 02:27:47;;;;;;;43.70;18.97;;;-4.40;73.90;;;-2.28;52.67;98580.91;5073917;28;20522;-54
2024/01/11 02:30:16;;;;;;;34.90;19.30;;;-4.40;74.00;;;-2.28;52.30;98580.91;5073558;28;20041;-54
2024/01/11 02:32:47;;;;;;;39.97;18.50;;;-4.40;73.80;;;-2.27;52.55;98579.97;5074122;28;20049;-54
2024/01/11 02:35:16;;;;;;;37.40;19.37;;;-4.40;73.80;;;-2.27;52.60;98588.69;5073067;28;20056;-53
2024/01/11 02:37:45;;;;;;;32.97;17.50;;;-4.40;73.70;;;-2.27;52.61;98577.38;5073811;28;20049;-53
2024/01/11 02:40:14;;;;;;;31.73;16.97;;;-4.40;73.80;;;-2.26;52.46;98586.91;5072430;28;20067;-53
2024/01/11 02:42:42;;;;;;;42.00;19.57;;;-4.30;74.30;;;-2.26;52.77;98579.91;5073628;28;20041;-52
2024/01/11 02:45:14;;;;;;;42.10;17.53;;;-4.30;74.20;;;-2.24;52.56;98574.66;5080179;28;20052;-54
2024/01/11 02:47:42;;;;;;;32.83;18.17;;;-4.30;74.00;;;-2.24;52.30;98575.50;5073398;28;20051;-54
2024/01/11 02:50:12;;;;;;;32.87;16.97;;;-4.40;73.60;;;-2.28;52.37;98581.75;5073514;28;20047;-54
2024/01/11 02:52:40;;;;;;;35.30;17.97;;;-4.40;74.10;;;-2.28;52.83;98579.13;5073436;28;20048;-51
2024/01/11 02:55:08;;;;;;;38.47;17.53;;;-4.40;73.90;;;-2.29;52.79;98568.75;5073435;28;20048;-54
2024/01/11 02:57:36;;;;;;;36.00;17.10;;;-4.50;73.60;;;-2.32;52.50;98571.50;5072357;28;20044;-50
2024/01/11 03:00:05;;;;;;;29.23;16.27;;;-4.60;73.50;;;-2.34;52.48;98565.50;5073499;28;20037;-54
2024/01/11 03:02:33;;;;;;;33.50;17.00;;;-4.60;73.70;;;-2.37;52.55;98563.81;5072005;28;20388;-51
2024/01/11 03:05:00;;;;;;;33.27;16.37;;;-4.60;74.10;;;-2.37;52.61;98563.81;5073609;28;20075;-54
2024/01/11 03:07:30;;;;;;;36.20;16.43;;;-4.60;73.70;;;-2.42;52.91;98558.78;5072243;28;20492;-51
2024/01/11 03:09:57;;;;;;;29.97;17.33;;;-4.60;73.20;;;-2.46;52.67;98564.16;5073366;28;20040;-51
2024/01/11 03:12:26;;;;;;;29.87;16.07;;;-4.70;74.60;;;-2.49;52.93;98561.69;5072647;28;20040;-51
2024/01/11 03:14:53;;;;;;;38.07;17.90;;;-4.70;74.70;;;-2.53;52.83;98562.72;5071825;28;20040;-50
2024/01/11 03:17:21;;;;;;;29.67;17.50;;;-4.80;75.50;;;-2.55;52.79;98554.94;5072717;28;20499;-54
2024/01/11 03:19:49;;;;;;;36.87;18.17;;;-4.80;75.40;;;-2.55;52.86;98556.72;5073168;28;20066;-53
2024/01/11 03:22:16;;;;;;;37.73;17.80;;;-4.80;75.30;;;-2.55;52.92;98551.50;5072481;28;20499;-54
2024/01/11 03:24:44;;;;;;;33.93;16.63;;;-4.70;75.20;;;-2.55;52.93;98544.50;5072936;28;20051;-51
2024/01/11 03:27:12;;;;;;;34.27;16.80;;;-4.70;74.90;;;-2.52;53.02;98559.19;5072728;28;20044;-53
2024/01/11 03:29:39;;;;;;;39.23;16.83;;;-4.70;74.60;;;-2.54;53.09;98558.41;5071453;28;20043;-51
2024/01/11 03:32:07;;;;;;;36.03;17.43;;;-4.70;74.60;;;-2.55;52.64;98559.31;5072344;28;20417;-52
2024/01/11 03:34:35;;;;;;;39.33;16.90;;;-4.70;74.90;;;-2.55;52.89;98554.94;5071828;28;20045;-51
2024/01/11 03:37:02;;;;;;;31.83;16.17;;;-4.70;74.50;;;-2.58;52.96;98558.53;5072733;28;20496;-51
2024/01/11 03:39:30;;;;;;;35.83;18.53;;;-4.80;74.30;;;-2.60;52.81;98555.13;5071235;28;20045;-54
2024/01/11 03:41:58;;;;;;;39.10;19.10;;;-4.80;74.40;;;-2.60;52.92;98551.66;5072391;28;20055;-53
2024/01/11 03:44:26;;;;;;;36.73;17.53;;;-4.80;74.40;;;-2.59;52.92;98556.81;5072268;28;20421;-53
2024/01/11 03:46:53;;;;;;;33.93;17.43;;;-4.80;74.80;;;-2.59;52.94;98558.56;5072567;28;20041;-54
2024/01/11 03:49:21;;;;;;;32.03;16.03;;;-4.80;74.30;;;-2.61;52.90;98555.19;5071025;28;20045;-54
2024/01/11 03:51:49;;;;;;;29.47;17.07;;;-4.80;74.30;;;-2.62;52.71;98561.28;5072189;28;20503;-51
2024/01/11 03:54:16;;;;;;;33.23;17.30;;;-4.80;74.30;;;-2.62;52.93;98566.50;5072594;28;20041;-53
2024/01/11 03:56:44;;;;;;;37.00;17.27;;;-4.90;74.60;;;-2.64;52.82;98558.72;5071512;28;20424;-52
2024/01/11 03:59:12;;;;;;;33.17;16.40;;;-4.80;74.70;;;-2.65;53.01;98551.00;5071656;28;20048;-50
2024/01/11 04:01:40;;;;;;;31.97;17.53;;;-4.80;75.10;;;-2.67;53.08;98553.66;5072026;28;20041;-50
2024/01/11 04:04:09;;;;;;;33.90;17.53;;;-4.90;74.50;;;-2.66;52.90;98546.66;5070808;28;20393;-52
2024/01/11 04:06:36;;;;;;;31.93;14.80;;;-4.80;74.70;;;-2.68;53.14;98544.09;5072045;28;20507;-50
2024/01/11 04:09:04;;;;;;;38.73;17.17;;;-4.90;75.20;;;-2.68;53.15;98548.47;5072304;28;20392;-49
2024/01/11 04:11:32;;;;;;;40.63;17.87;;;-4.90;75.10;;;-2.69;53.17;98541.59;5071622;28;20037;-53
2024/01/11 04:13:59;;;;;;;35.67;17.40;;;-4.90;75.40;;;-2.71;53.02;98540.78;5078267;28;20044;-53
2024/01/11 04:16:27;;;;;;;32.43;16.03;;;-5.00;75.60;;;-2.72;53.07;98541.69;5071917;28;20048;-50
2024/01/11 04:18:55;;;;;;;33.87;16.97;;;-5.00;75.60;;;-2.72;52.96;98544.28;5072435;28;20040;-50
2024/01/11 04:21:24;;;;;;;31.27;17.60;;;-4.90;75.70;;;-2.77;53.04;98549.69;5069640;28;20045;-53
2024/01/11 04:23:52;;;;;;;28.33;16.60;;;-5.00;75.00;;;-2.80;53.09;98542.81;5071892;28;20523;-53
2024/01/11 04:26:20;;;;;;;34.57;18.07;;;-5.10;75.90;;;-2.80;53.34;98537.59;5071749;28;20040;-52
2024/01/11 04:28:49;;;;;;;36.80;18.77;;;-5.00;76.10;;;-2.83;53.30;98539.47;5071845;28;20043;-49
2024/01/11 04:31:17;;;;;;;37.50;19.60;;;-5.10;76.20;;;-2.84;53.45;98543.00;5071273;28;20488;-52
2024/01/11 04:33:46;;;;;;;35.07;18.10;;;-5.10;76.70;;;-2.84;53.54;98541.22;5069176;28;20408;-55
2024/01/11 04:36:13;;;;;;;36.57;18.37;;;-5.10;76.30;;;-2.84;53.41;98541.22;5071507;28;20040;-51
2024/01/11 04:38:41;;;;;;;35.93;18.73;;;-5.00;76.20;;;-2.83;53.53;98537.72;5071521;28;20496;-52
2024/01/11 04:41:13;;;;;;;37.17;17.50;;;-5.00;75.80;;;-2.84;53.62;98537.78;5071282;28;20436;-52
2024/01/11 04:43:43;;;;;;;32.87;17.27;;;-5.10;75.30;;;-2.85;53.46;98543.88;5063567;28;20424;-51
2024/01/11 04:46:21;;;;;;;35.80;18.63;;;-5.10;76.00;;;-2.86;53.64;98542.19;5071262;28;20046;-53
2024/01/11 04:48:50;;;;;;;33.00;17.23;;;-5.10;76.60;;;-2.83;53.72;98531.63;5062937;28;20488;-51
2024/01/11 04:51:18;;;;;;;36.17;16.47;;;-5.00;76.60;;;-2.82;53.48;98538.56;5070940;28;20041;-49
2024/01/11 04:53:46;;;;;;;36.07;17.77;;;-5.00;75.80;;;-2.81;53.41;98540.25;5069919;28;20051;-53
2024/01/11 04:56:16;;;;;;;32.20;17.63;;;-5.00;76.30;;;-2.81;53.56;98541.13;5071251;28;20482;-50
2024/01/11 04:58:45;;;;;;;37.07;17.23;;;-5.00;75.90;;;-2.80;53.54;98536.75;5070883;28;20044;-51
2024/01/11 05:01:17;;;;;;;33.90;17.57;;;-5.00;75.80;;;-2.78;53.54;98545.38;5070797;28;20044;-49
2024/01/11 05:03:47;;;;;;;35.37;17.10;;;-4.90;76.20;;;-2.78;53.26;98542.75;5063607;28;20491;-52
2024/01/11 05:06:20;;;;;;;32.80;18.50;;;-4.90;76.30;;;-2.75;53.38;98550.47;5061110;28;20053;-52
2024/01/11 05:08:54;;;;;;;41.88;18.60;;;-4.90;76.10;;;-2.76;53.31;98556.59;5071125;28;20415;-51
2024/01/11 05:11:26;;;;;;;35.40;18.60;;;-4.90;75.50;;;-2.78;53.47;98558.41;5070276;28;20059;-49
2024/01/11 05:13:54;;;;;;;34.10;17.90;;;-5.00;76.40;;;-2.82;53.50;98557.66;5070606;28;20519;-51
2024/01/11 05:16:25;;;;;;;40.73;18.30;;;-5.10;77.30;;;-2.84;53.93;98566.44;5070831;28;20049;-54
2024/01/11 05:18:55;;;;;;;41.77;19.93;;;-5.10;78.60;;;-2.84;54.00;98561.22;5070714;28;20052;-51
2024/01/11 05:21:24;;;;;;;38.37;17.83;;;-5.10;78.90;;;-2.85;54.07;98563.00;5070577;28;20427;-53
2024/01/11 05:23:52;;;;;;;38.53;18.83;;;-5.00;78.60;;;-2.84;53.96;98558.63;5069567;28;20060;-52
2024/01/11 05:26:21;;;;;;;38.27;18.00;;;-5.00;77.90;;;-2.81;54.10;98568.91;5068589;28;20044;-53
2024/01/11 05:28:48;;;;;;;35.83;16.90;;;-5.00;77.40;;;-2.80;53.69;98562.81;5070512;28;20040;-50
2024/01/11 05:31:16;;;;;;;37.80;19.63;;;-4.90;77.10;;;-2.77;53.68;98570.53;5070370;28;20032;-50
2024/01/11 05:33:46;;;;;;;38.43;17.87;;;-4.90;76.30;;;-2.76;53.81;98577.44;5063116;28;20039;-53
2024/01/11 05:36:15;;;;;;;32.90;18.23;;;-4.90;76.00;;;-2.77;53.75;98587.03;5070254;28;20041;-53
2024/01/11 05:38:42;;;;;;;39.83;20.07;;;-4.90;75.80;;;-2.75;53.46;98579.16;5070765;28;20036;-53
2024/01/11 05:41:10;;;;;;;29.93;18.17;;;-4.90;75.60;;;-2.76;53.46;98585.25;5077247;28;20063;-50
2024/01/11 05:43:39;;;;;;;42.20;19.93;;;-4.90;75.20;;;-2.79;53.55;98585.38;5070322;28;20056;-54
2024/01/11 05:46:07;;;;;;;36.77;19.27;;;-5.00;75.30;;;-2.82;53.13;98581.09;5070616;28;20393;-51
2024/01/11 05:48:35;;;;;;;48.80;21.23;;;-5.10;75.70;;;-2.84;53.21;98588.13;5072790;28;20043;-51
2024/01/11 05:51:03;;;;;;;39.83;19.27;;;-5.00;75.70;;;-2.85;53.46;98582.97;5083044;28;20513;-51
2024/01/11 05:53:34;;;;;;;38.80;18.93;;;-5.00;75.50;;;-2.84;53.63;98587.28;5069978;28;20048;-54
2024/01/11 05:56:07;;;;;;;33.43;19.00;;;-5.00;74.90;;;-2.85;53.46;98596.88;5070099;28;20037;-51
2024/01/11 05:58:36;;;;;;;31.03;16.57;;;-5.00;75.10;;;-2.87;53.36;98603.91;5070248;28;20047;-49
2024/01/11 06:01:04;;;;;;;35.33;17.73;;;-5.00;74.60;;;-2.87;53.47;98605.63;5069375;28;20500;-53
2024/01/11 06:03:34;;;;;;;35.93;17.67;;;-5.10;74.60;;;-2.92;53.52;98597.16;5070139;28;20395;-53
2024/01/11 06:06:03;;;;;;;36.30;17.87;;;-5.10;75.60;;;-2.92;53.76;98607.56;5070304;28;20052;-48
2024/01/11 06:08:31;;;;;;;38.17;19.73;;;-5.20;75.70;;;-2.93;53.56;98604.09;5070188;28;20041;-52
2024/01/11 06:10:59;;;;;;;39.60;18.37;;;-5.20;75.80;;;-2.95;53.53;98605.06;5069144;28;20041;-53
2024/01/11 06:13:27;;;;;;;34.80;18.07;;;-5.20;75.30;;;-3.00;53.43;98606.06;5068990;28;20523;-52
2024/01/11 06:15:58;;;;;;;34.53;17.63;;;-5.20;75.30;;;-3.02;53.56;98605.28;5070585;28;20039;-52
2024/01/11 06:18:26;;;;;;;37.10;18.53;;;-5.20;75.60;;;-3.01;53.58;98598.31;5085581;28;20052;-54
2024/01/11 06:20:53;;;;;;;42.27;18.30;;;-5.20;75.40;;;-3.00;53.55;98595.66;5073056;28;20052;-53
2024/01/11 06:23:22;;;;;;;42.93;18.63;;;-5.10;75.10;;;-3.01;53.52;98599.16;5073932;28;20056;-52
2024/01/11 06:25:50;;;;;;;48.53;18.37;;;-5.20;75.10;;;-3.02;53.69;98601.81;5065190;28;20045;-54
2024/01/11 06:28:18;;;;;;;38.70;19.00;;;-5.20;74.90;;;-3.01;53.45;98603.50;5073947;28;20043;-54
2024/01/11 06:30:45;;;;;;;39.80;18.67;;;-5.20;75.00;;;-3.00;53.41;98597.41;5073441;28;20048;-54
2024/01/11 06:33:13;;;;;;;32.53;18.03;;;-5.20;75.10;;;-3.00;53.54;98592.19;5073755;28;20415;-52
2024/01/11 06:35:41;;;;;;;35.77;17.00;;;-5.10;74.90;;;-3.00;53.47;98600.88;5073846;28;20052;-54
2024/01/11 06:38:08;;;;;;;36.33;18.17;;;-5.10;74.70;;;-2.98;53.36;98604.25;5073702;28;20036;-52
2024/01/11 06:40:36;;;;;;;30.63;19.37;;;-5.10;74.50;;;-2.98;53.46;98606.03;5072415;28;20036;-51
2024/01/11 06:43:04;;;;;;;34.97;19.33;;;-5.10;74.30;;;-2.99;53.58;98601.69;5073462;28;20416;-52
2024/01/11 06:45:32;;;;;;;36.27;17.97;;;-5.20;74.40;;;-3.01;53.71;98598.31;5063904;28;20056;-52
2024/01/11 06:47:59;;;;;;;30.70;17.30;;;-5.20;75.10;;;-3.01;53.52;98599.16;5073447;28;20045;-50
2024/01/11 06:50:28;;;;;;;39.63;17.60;;;-5.20;75.50;;;-3.01;53.50;98600.91;5073300;28;20051;-54
2024/01/11 06:52:56;;;;;;;38.43;18.73;;;-5.20;74.90;;;-3.08;53.63;98604.63;5073525;28;20495;-53
2024/01/11 06:55:23;;;;;;;37.43;18.30;;;-5.30;75.80;;;-3.08;53.65;98615.91;5073289;28;20044;-53
2024/01/11 06:57:51;;;;;;;40.13;18.43;;;-5.30;76.90;;;-3.07;53.67;98622.81;5065395;28;20040;-53
2024/01/11 07:00:19;;;;;;;37.47;19.30;;;-5.30;76.50;;;-3.04;53.60;98619.28;5073397;28;20420;-54
2024/01/11 07:02:47;;;;;;;32.13;17.13;;;-5.20;75.90;;;-3.07;53.78;98624.56;5073565;28;20048;-54
2024/01/11 07:05:14;;;;;;;35.67;18.73;;;-5.30;75.30;;;-3.09;53.87;98632.44;5073972;28;20511;-52
2024/01/11 07:07:42;;;;;;;43.87;18.73;;;-5.30;76.50;;;-3.07;53.63;98635.84;5073263;28;20516;-51
2024/01/11 07:10:10;;;;;;;44.20;19.47;;;-5.30;76.30;;;-3.08;53.61;98641.09;5072736;28;20421;-52
2024/01/11 07:12:38;;;;;;;29.67;17.50;;;-5.20;76.40;;;-3.08;53.81;98635.88;5073035;28;20412;-52
2024/01/11 07:15:07;;;;;;;36.37;20.70;;;-5.20;76.20;;;-3.07;53.99;98645.41;5073014;28;20109;-53
2024/01/11 07:17:35;;;;;;;36.13;19.73;;;-5.30;76.50;;;-3.07;53.71;98640.22;5073046;28;20055;-52
2024/01/11 07:20:04;;;;;;;29.83;17.60;;;-5.30;76.50;;;-3.06;53.66;98641.91;5073088;28;20055;-53
2024/01/11 07:22:32;;;;;;;34.87;17.40;;;-5.30;76.80;;;-3.08;53.92;98635.88;5072273;28;20048;-53
2024/01/11 07:24:59;;;;;;;37.90;18.07;;;-5.30;76.60;;;-3.09;53.86;98650.66;5060511;28;20798;-54
2024/01/11 07:27:27;;;;;;;37.40;20.17;;;-5.30;76.50;;;-3.05;53.69;98654.03;5062853;28;20047;-54
2024/01/11 07:29:54;;;;;;;34.40;18.63;;;-5.20;75.90;;;-3.07;53.56;98650.63;5063866;28;20071;-52
2024/01/11 07:32:22;;;;;;;53.43;23.27;;;-5.20;76.10;;;-3.05;54.33;98654.88;5066958;28;20055;-53
2024/01/11 07:34:50;;;;;;;48.03;23.00;;;-5.10;76.00;;;-3.04;53.66;98653.13;5060846;28;20424;-53
2024/01/11 07:37:17;;;;;;;49.53;22.03;;;-5.20;75.60;;;-3.05;53.96;98657.47;5061248;28;20044;-53
2024/01/11 07:39:45;;;;;;;52.23;23.43;;;-5.20;76.00;;;-3.05;54.02;98657.47;5060409;28;20195;-52
2024/01/11 07:42:14;;;;;;;48.43;21.63;;;-5.20;75.60;;;-3.02;53.74;98661.75;5059162;28;20041;-54
2024/01/11 07:44:42;;;;;;;50.73;25.20;;;-5.20;75.70;;;-3.03;53.80;98668.69;5064123;28;20055;-54
2024/01/11 07:47:11;;;;;;;54.63;22.77;;;-5.20;75.50;;;-3.03;53.77;98675.66;5067359;28;20040;-52
2024/01/11 07:49:39;;;;;;;40.87;19.20;;;-5.30;75.70;;;-3.04;53.93;98671.38;5068097;28;20044;-52
2024/01/11 07:52:07;;;;;;;45.20;21.50;;;-5.20;76.60;;;-3.00;53.95;98675.59;5071256;28;20044;-50
2024/01/11 07:54:35;;;;;;;46.70;22.37;;;-5.20;76.40;;;-2.97;54.05;98683.28;5070815;28;20044;-54
2024/01/11 07:57:03;;;;;;;38.20;19.03;;;-5.10;76.10;;;-2.97;53.93;98697.19;5071494;28;20043;-53
2024/01/11 07:59:35;;;;;;;32.67;17.47;;;-5.10;75.90;;;-2.94;53.85;98696.22;5071387;28;20059;-53
2024/01/11 08:02:03;;;;;;;36.80;19.47;;;-5.00;76.90;;;-2.90;54.00;98700.41;5064356;28;20044;-53
2024/01/11 08:04:32;;;;;;;37.30;18.50;;;-5.00;76.80;;;-2.88;54.03;98702.97;5072152;28;20536;-54
2024/01/11 08:06:59;;;;;;;40.67;19.87;;;-4.90;76.80;;;-2.83;53.98;98695.84;5064114;28;20044;-55
2024/01/11 08:09:28;;;;;;;33.30;17.23;;;-4.90;77.00;;;-2.79;54.28;98706.13;5070822;28;20037;-51
2024/01/11 08:11:55;;;;;;;42.20;17.63;;;-4.80;76.70;;;-2.80;54.32;98714.00;5071591;28;20036;-53
2024/01/11 08:14:24;;;;;;;33.60;16.83;;;-4.90;77.00;;;-2.81;54.38;98734.00;5069557;28;20044;-53
2024/01/11 08:16:53;;;;;;;28.77;15.57;;;-4.90;77.80;;;-2.82;54.36;98727.06;5071824;28;20041;-54
2024/01/11 08:19:21;;;;;;;33.83;17.07;;;-5.00;78.10;;;-2.80;54.55;98724.41;5070514;28;20427;-52
2024/01/11 08:21:48;;;;;;;32.67;17.27;;;-4.90;78.80;;;-2.75;54.29;98719.91;5071396;28;20044;-55
2024/01/11 08:24:17;;;;;;;34.03;17.17;;;-4.80;78.50;;;-2.71;54.64;98726.72;5071547;28;20388;-52
2024/01/11 08:26:45;;;;;;;33.87;17.00;;;-4.80;78.30;;;-2.69;54.49;98722.31;5071421;28;20063;-52
2024/01/11 08:29:14;;;;;;;35.67;17.47;;;-4.70;78.50;;;-2.66;54.60;98730.00;5071878;28;20416;-51
2024/01/11 08:31:43;;;;;;;30.77;16.80;;;-4.70;78.20;;;-2.63;54.35;98726.47;5070881;28;20051;-53
2024/01/11 08:34:11;;;;;;;33.87;18.80;;;-4.70;78.00;;;-2.62;54.75;98739.44;5071013;28;20120;-53
2024/01/11 08:36:39;;;;;;;30.73;16.57;;;-4.60;77.50;;;-2.64;54.85;98735.16;5069586;28;20059;-54
2024/01/11 08:39:08;;;;;;;40.00;17.60;;;-4.50;77.50;;;-2.60;54.79;98727.22;5070193;28;20488;-52
2024/01/11 08:41:37;;;;;;;33.47;17.90;;;-4.50;77.50;;;-2.55;54.88;98731.41;5071262;28;20053;-50
2024/01/11 08:44:07;;;;;;;32.37;17.37;;;-4.50;77.50;;;-2.51;54.81;98727.78;5071339;28;20040;-54
2024/01/11 08:46:35;;;;;;;38.47;19.97;;;-4.40;77.60;;;-2.45;54.82;98730.19;5071165;28;20542;-52
2024/01/11 08:49:03;;;;;;;31.13;18.30;;;-4.40;77.20;;;-2.43;54.60;98726.59;5063199;28;20041;-54
2024/01/11 08:51:32;;;;;;;40.70;18.17;;;-4.30;77.20;;;-2.40;54.47;98720.44;5070938;28;20048;-54
2024/01/11 08:53:59;;;;;;;36.30;18.40;;;-4.30;77.20;;;-2.39;54.74;98717.75;5069833;28;20408;-55
2024/01/11 08:56:27;;;;;;;34.33;19.23;;;-4.30;77.20;;;-2.35;54.86;98721.13;5070966;28;20044;-55
2024/01/11 08:58:55;;;;;;;39.13;18.57;;;-4.30;77.40;;;-2.31;54.90;98721.88;5071045;28;20052;-54
2024/01/11 09:01:24;;;;;;;39.00;17.87;;;-4.30;77.50;;;-2.29;54.79;98725.25;5069656;28;20047;-52
2024/01/11 09:03:52;;;;;;;39.43;19.53;;;-4.30;77.50;;;-2.26;54.75;98722.56;5070617;28;20048;-55
2024/01/11 09:06:20;;;;;;;32.90;17.57;;;-4.30;77.30;;;-2.22;54.55;98725.00;5071076;28;20052;-54
2024/01/11 09:08:48;;;;;;;36.90;18.60;;;-4.20;77.10;;;-2.19;54.67;98724.03;5070848;28;20550;-51
2024/01/11 09:11:17;;;;;;;35.93;18.33;;;-4.20;77.00;;;-2.19;54.70;98724.91;5070671;28;20059;-54
2024/01/11 09:13:44;;;;;;;33.13;18.23;;;-4.20;76.80;;;-2.15;54.72;98727.38;5065874;28;20040;-54
2024/01/11 09:16:18;;;;;;;30.97;17.53;;;-4.10;77.00;;;-2.12;54.82;98743.78;5071426;28;20499;-53
2024/01/11 09:18:45;;;;;;;25.55;13.27;;;-4.10;76.50;;;-2.20;54.85;98748.44;5070640;28;20448;-53
2024/01/11 09:21:13;;;;;;;29.90;16.20;;;-4.30;76.80;;;-2.22;54.93;98747.63;5067059;28;20040;-52
2024/01/11 09:23:41;;;;;;;39.20;17.27;;;-4.20;77.90;;;-2.19;55.28;98750.97;5067636;28;20048;-52
2024/01/11 09:26:09;;;;;;;38.07;19.00;;;-4.20;77.70;;;-2.23;55.17;98749.41;5069414;28;20420;-56
2024/01/11 09:28:36;;;;;;;38.57;18.40;;;-4.20;78.10;;;-2.25;55.06;98739.91;5067823;28;20436;-55
2024/01/11 09:31:04;;;;;;;38.33;18.30;;;-4.30;78.60;;;-2.21;55.11;98737.16;5069111;28;20041;-53
2024/01/11 09:33:32;;;;;;;40.30;18.57;;;-4.20;78.80;;;-2.13;55.18;98744.69;5069452;28;20044;-54
2024/01/11 09:36:00;;;;;;;39.30;20.37;;;-4.20;78.70;;;-2.06;55.40;98743.53;5067632;28;20053;-53
2024/01/11 09:38:27;;;;;;;36.50;17.57;;;-4.10;78.50;;;-2.02;55.08;98752.97;5069510;28;20261;-49
2024/01/11 09:41:28;;;;;;;34.57;18.57;;;-4.00;78.00;;;-1.94;55.06;98762.28;5068049;28;20111;-52
2024/01/11 09:44:00;;;;;;;39.40;20.33;;;-3.90;78.10;;;-1.91;54.96;98757.81;5069592;28;20068;-60
2024/01/11 09:46:29;;;;;;;34.80;18.77;;;-3.90;78.00;;;-1.86;55.35;98762.84;5067175;28;20048;-60
2024/01/11 09:48:58;;;;;;;36.93;20.40;;;-3.90;78.10;;;-1.81;55.09;98760.94;5069069;28;20044;-60
2024/01/11 09:51:27;;;;;;;41.07;19.10;;;-3.80;78.00;;;-1.79;54.97;98764.34;5059037;28;20056;-59
2024/01/11 09:53:58;;;;;;;35.43;18.17;;;-3.80;78.10;;;-1.76;55.21;98760.75;5067445;28;20053;-61
2024/01/11 09:56:27;;;;;;;34.77;20.70;;;-3.80;78.10;;;-1.72;55.35;98760.59;5072420;28;20549;-60
2024/01/11 09:58:55;;;;;;;35.57;18.37;;;-3.70;77.60;;;-1.69;55.36;98759.63;5071773;28;20420;-61
2024/01/11 10:01:24;;;;;;;36.83;20.50;;;-3.70;77.70;;;-1.65;55.48;98756.84;5072161;28;20085;-61
2024/01/11 10:03:53;;;;;;;39.97;20.20;;;-3.60;77.20;;;-1.62;55.31;98764.56;5072910;28;20103;-61
2024/01/11 10:06:23;;;;;;;37.93;19.67;;;-3.60;77.40;;;-1.58;55.10;98747.84;5074226;28;20052;-60
2024/01/11 10:08:51;;;;;;;34.43;18.57;;;-3.60;77.30;;;-1.53;55.38;98739.00;5073031;28;20064;-60
2024/01/11 10:11:18;;;;;;;36.73;18.23;;;-3.50;77.40;;;-1.50;55.32;98739.72;5073729;28;20041;-60